Airfield :
LOGIN :

Register | Disclaimer

   EN    FR    IT 

 










Legend :    VFR   Marginal VFR   IFR   Intensive IFR   Very Intensive IFR
Visi :
Ceiling :
>= 8 km
>= 3000ft
5 to 8 km
1000 to 3000 ft
1500m to 5 km
500 to 1000 ft
800 to 1500m
200 to 500 ft
< 800m
< 200 ft
Symbols :   Thunderstorms  Fog  Heavy snow  Heavy precipitations  Wind > 20 kt
SIGMETs :     Misc.  Thunderstorms  Icing  Turbulence  Mountain Waves  Volcanic Ashes







- Airport Elevation : 1 ft
- Download approach charts


EGCK - Caernarfon

CURRENT METAR :
  • 210220Z AUTO 33013KT 9999 NCD 11/06 Q1025

EXPIRED METARs :
  • 210150Z AUTO 32015KT 9999 FEW028/// 11/06 Q1025
  • 210120Z AUTO 32018KT 9999 NCD 11/07 Q1025
  • 210050Z AUTO 32020KT 9999 SCT024/// 12/07 Q1025
  • 210020Z AUTO 32018KT 9999 SCT026/// 13/07 Q1024
  • 202350Z AUTO 32017KT 9999 NCD 13/06 Q1024

TAF TAF EGCK
Valid from the 21 at 03:00 until the 21 at 12:00 UTC


210159Z 2103/2112 32015KT 9999 BKN040
PROB40
TEMPO 2103/2106 32018G28KT
No reported NOTAMs for that airfield.



MET'MAP, your aeronautical weather chart ! - Copyright ORBIFLY December 2007 - Disclaimer

ORBIFLY MET'MAP TEAM :

Programming & Development : Alexandra Zaïnal
Concept & Development : Baudouin d'Aumeries
Co-Development & Prog : Marc-Olivier Méhu
Technical & hardware support : Manuel Goepfert

Contact : metmap@orbifly.com




SOURCES & CREDITS :

   NOAA